Time;durP1;ratioP1;P1;durP2;ratioP2;P2;SDS_P1;SDS_P2;PMS_P1;PMS_P2;Temp;Humidity;BMP_temperature;BMP_pressure;BME280_temperature;BME280_humidity;BME280_pressure;Samples;Min_cycle;Max_cycle;Signal;HPM_P1;HPM_P2
2021/06/30 07:37:06;;;;;;;800.75;749.33;;;18.30;99.90;;;;;;5091258;27;20540;-71
2021/06/30 07:39:32;;;;;;;1085.63;997.55;;;17.00;99.90;;;;;;5091087;28;20198;-72
2021/06/30 07:41:58;;;;;;;1115.20;998.03;;;17.10;99.90;;;;;;5091138;28;20211;-70
2021/06/30 07:44:23;;;;;;;1110.10;999.90;;;17.30;99.90;;;;;;5091026;28;20176;-70
2021/06/30 07:46:49;;;;;;;1018.08;943.88;;;17.40;99.90;;;;;;5090825;28;20168;-71
2021/06/30 07:49:15;;;;;;;1091.95;997.53;;;17.60;99.90;;;;;;5089942;28;20262;-70
2021/06/30 07:51:41;;;;;;;1124.82;999.90;;;17.70;99.90;;;;;;5089897;28;20168;-72
2021/06/30 07:54:07;;;;;;;1780.18;999.90;;;17.80;99.90;;;;;;5090856;28;20168;-71
2021/06/30 07:56:38;;;;;;;1203.90;999.90;;;17.90;99.90;;;;;;5090834;28;20203;-70
2021/06/30 07:59:08;;;;;;;1231.15;999.90;;;18.00;99.90;;;;;;5090870;28;20206;-70
2021/06/30 08:01:34;;;;;;;1249.95;999.90;;;18.10;99.90;;;;;;5090677;28;20543;-70
2021/06/30 08:04:00;;;;;;;1274.50;999.90;;;18.10;99.90;;;;;;5090730;28;20168;-70
2021/06/30 08:06:26;;;;;;;1280.25;999.90;;;18.10;99.90;;;;;;5090876;28;20515;-71
2021/06/30 08:08:52;;;;;;;1285.00;999.90;;;18.00;99.90;;;;;;5090565;28;20214;-71
2021/06/30 08:11:19;;;;;;;1269.25;999.90;;;17.90;99.90;;;;;;5090671;28;20168;-71
2021/06/30 08:13:45;;;;;;;1256.28;999.90;;;17.80;99.90;;;;;;5089012;28;20167;-71
2021/06/30 08:16:10;;;;;;;1242.78;999.90;;;17.70;99.90;;;;;;5090409;28;20203;-70
2021/06/30 08:18:36;;;;;;;1233.35;999.90;;;17.60;99.90;;;;;;5090406;28;20221;-71
2021/06/30 08:21:02;;;;;;;1219.53;999.90;;;17.40;99.90;;;;;;5090482;28;20168;-71
2021/06/30 08:23:28;;;;;;;1195.25;999.90;;;17.40;99.90;;;;;;5090582;28;20176;-70
2021/06/30 08:25:54;;;;;;;1169.30;999.90;;;17.30;99.90;;;;;;5090122;28;20629;-70
2021/06/30 08:28:24;;;;;;;1108.50;999.90;;;17.20;99.90;;;;;;5090148;28;20222;-71
2021/06/30 08:30:51;;;;;;;1126.53;999.90;;;17.10;99.90;;;;;;5090129;28;20650;-71
2021/06/30 08:33:17;;;;;;;1110.65;999.90;;;17.10;99.90;;;;;;5090086;28;20568;-70
2021/06/30 08:35:42;;;;;;;1073.32;989.20;;;17.00;99.90;;;;;;5089729;28;20234;-71
2021/06/30 08:38:08;;;;;;;1075.78;991.38;;;16.80;99.90;;;;;;5088898;28;20217;-71
2021/06/30 08:40:36;;;;;;;1066.00;985.08;;;16.90;99.90;;;;;;5089927;28;20613;-72
2021/06/30 08:43:01;;;;;;;1051.50;972.70;;;16.90;99.90;;;;;;5090018;28;20217;-73
2021/06/30 08:45:27;;;;;;;1055.82;976.50;;;16.90;99.90;;;;;;5088746;28;20175;-73
2021/06/30 08:47:57;;;;;;;1039.00;962.05;;;16.90;99.90;;;;;;5079614;28;20176;-73
2021/06/30 08:50:23;;;;;;;1047.03;968.85;;;16.80;99.90;;;;;;5076321;28;20652;-72
2021/06/30 08:52:51;;;;;;;1047.43;968.40;;;17.00;99.90;;;;;;5076117;28;20180;-71
2021/06/30 08:55:17;;;;;;;1078.30;992.47;;;16.90;99.90;;;;;;5075921;28;20243;-70
2021/06/30 08:57:47;;;;;;;1097.38;999.03;;;17.10;99.90;;;;;;5076280;28;20264;-71
2021/06/30 09:00:14;;;;;;;1058.30;978.05;;;17.10;99.90;;;;;;5076104;28;20555;-71
2021/06/30 09:02:43;;;;;;;1066.38;985.42;;;17.10;99.90;;;;;;5076016;28;20505;-71
2021/06/30 09:07:50;;;;;;;1034.00;957.60;;;17.00;99.90;;;;;;5075938;28;20168;-72
2021/06/30 09:10:33;;;;;;;1056.00;976.53;;;17.00;99.90;;;;;;5076054;28;20545;-72
2021/06/30 09:12:59;;;;;;;1068.55;986.42;;;17.10;99.90;;;;;;5075980;28;20384;-72
2021/06/30 09:15:29;;;;;;;1086.35;995.80;;;17.10;99.90;;;;;;5075895;28;20638;-74
2021/06/30 09:18:19;;;;;;;1085.63;994.50;;;17.20;99.90;;;;;;5074393;28;20255;-72
2021/06/30 09:20:46;;;;;;;1085.03;995.17;;;17.40;99.90;;;;;;5075865;28;20221;-71
2021/06/30 09:23:12;;;;;;;1123.10;999.90;;;17.50;99.90;;;;;;5075736;28;20617;-70
2021/06/30 09:25:43;;;;;;;1134.85;999.90;;;17.60;99.90;;;;;;5075644;28;20168;-70
2021/06/30 09:28:26;;;;;;;1136.05;999.90;;;17.60;99.90;;;;;;5075705;28;20199;-71
2021/06/30 09:30:54;;;;;;;1128.72;999.90;;;17.60;99.90;;;;;;5075678;28;20259;-72
2021/06/30 09:33:20;;;;;;;1126.47;999.90;;;17.60;99.90;;;;;;5075529;28;20229;-71
2021/06/30 09:35:45;;;;;;;1110.20;999.90;;;17.60;99.90;;;;;;5075179;28;20310;-71
2021/06/30 09:38:32;;;;;;;1082.80;993.47;;;17.40;99.90;;;;;;5075340;28;20168;-71
2021/06/30 09:40:59;;;;;;;1038.68;961.20;;;17.30;99.90;;;;;;5075202;28;20203;-72
2021/06/30 09:43:24;;;;;;;1066.82;984.53;;;17.30;99.90;;;;;;5075168;28;20196;-72
2021/06/30 09:45:50;;;;;;;1086.38;995.55;;;17.40;99.90;;;;;;5075074;28;20567;-71
2021/06/30 09:48:38;;;;;;;1145.68;999.90;;;17.50;99.90;;;;;;5075159;28;20195;-71
2021/06/30 09:51:05;;;;;;;1151.90;999.90;;;17.80;99.90;;;;;;5075164;28;20255;-71
2021/06/30 09:53:39;;;;;;;1184.03;999.90;;;18.00;99.90;;;;;;5075208;28;20169;-71
2021/06/30 09:56:09;;;;;;;1158.75;999.90;;;18.00;99.90;;;;;;5074977;28;20613;-72
2021/06/30 09:58:35;;;;;;;1131.72;999.90;;;18.00;99.90;;;;;;5074132;28;20164;-71
2021/06/30 10:01:20;;;;;;;1112.70;999.90;;;17.80;99.90;;;;;;5074890;28;20614;-71
2021/06/30 10:03:47;;;;;;;1076.72;990.17;;;17.60;99.90;;;;;;5075072;28;20251;-71
2021/06/30 10:06:35;;;;;;;1118.15;999.90;;;17.60;99.90;;;;;;5074936;28;20215;-70
2021/06/30 10:09:04;;;;;;;1088.70;995.70;;;17.70;99.90;;;;;;5074868;28;20164;-72
2021/06/30 10:11:31;;;;;;;1076.68;988.80;;;17.80;99.90;;;;;;5074716;28;20190;-71
2021/06/30 10:13:58;;;;;;;1098.57;997.85;;;17.80;99.90;;;;;;5074779;28;20255;-72
2021/06/30 10:16:26;;;;;;;1109.30;999.90;;;17.90;99.90;;;;;;5074568;28;20192;-71
2021/06/30 10:18:54;;;;;;;1125.90;999.90;;;17.90;99.90;;;;;;5073543;28;20186;-72
2021/06/30 10:21:23;;;;;;;1149.38;999.90;;;18.10;99.90;;;;;;5074636;28;20167;-72
2021/06/30 10:23:49;;;;;;;1182.38;999.90;;;18.30;99.90;;;;;;5074606;28;20305;-69
2021/06/30 10:26:19;;;;;;;1183.28;999.90;;;18.40;99.90;;;;;;5074472;28;20524;-70
2021/06/30 10:28:53;;;;;;;1196.75;999.90;;;18.40;99.90;;;;;;5073260;28;20173;-69
2021/06/30 10:31:19;;;;;;;1163.88;999.90;;;18.40;99.90;;;;;;5073376;28;20169;-70
2021/06/30 10:34:02;;;;;;;1177.25;999.90;;;18.40;99.90;;;;;;5074444;28;20179;-70
2021/06/30 10:36:49;;;;;;;1137.45;999.90;;;18.30;99.90;;;;;;5074161;28;20309;-70
2021/06/30 10:39:20;;;;;;;1118.70;999.90;;;18.00;99.90;;;;;;5074220;28;20651;-70
2021/06/30 10:41:54;;;;;;;1105.10;999.30;;;17.90;99.90;;;;;;5074206;28;20179;-69
2021/06/30 10:44:24;;;;;;;1079.82;991.35;;;17.80;99.90;;;;;;5074288;28;20176;-69
2021/06/30 10:46:53;;;;;;;1110.28;999.90;;;17.90;99.90;;;;;;5074056;28;20653;-72
2021/06/30 10:49:19;;;;;;;1121.97;999.90;;;18.00;99.90;;;;;;5074244;28;20184;-69
2021/06/30 10:51:47;;;;;;;1129.68;999.90;;;18.10;99.90;;;;;;5073992;28;20301;-70
2021/06/30 10:54:31;;;;;;;1143.55;999.90;;;18.10;99.90;;;;;;5072869;28;20181;-72
2021/06/30 10:57:18;;;;;;;1134.18;999.90;;;18.20;99.90;;;;;;5073862;28;20203;-72
2021/06/30 11:00:03;;;;;;;1139.07;999.90;;;18.20;99.90;;;;;;5072718;28;20168;-72
2021/06/30 11:02:33;;;;;;;1162.88;999.90;;;18.20;99.90;;;;;;5074094;28;20156;-72
2021/06/30 11:05:14;;;;;;;1162.13;999.90;;;18.10;99.90;;;;;;5073712;28;20160;-73
2021/06/30 11:07:41;;;;;;;1103.55;998.38;;;18.10;99.90;;;;;;5074031;28;20182;-72
2021/06/30 11:10:20;;;;;;;1139.30;999.90;;;17.90;99.90;;;;;;5073490;28;20190;-72
2021/06/30 11:12:59;;;;;;;1127.55;999.90;;;17.90;99.90;;;;;;5072603;28;20250;-73
2021/06/30 11:15:37;;;;;;;1132.35;999.90;;;18.00;99.90;;;;;;5073722;28;20274;-71
2021/06/30 11:18:12;;;;;;;1153.47;999.90;;;18.10;99.90;;;;;;5074000;28;20602;-71
2021/06/30 11:20:48;;;;;;;1146.63;999.90;;;18.20;99.90;;;;;;5073870;28;20571;-71
2021/06/30 11:23:18;;;;;;;1176.15;999.90;;;18.20;99.90;;;;;;5073898;28;20152;-71
2021/06/30 11:25:44;;;;;;;1199.15;999.90;;;18.30;99.90;;;;;;5073588;28;20487;-71
2021/06/30 11:28:34;;;;;;;1186.18;999.90;;;18.30;99.90;;;;;;5073592;28;20184;-71
2021/06/30 11:31:20;;;;;;;1124.03;999.90;;;18.30;99.90;;;;;;5073702;28;20262;-73
2021/06/30 11:34:13;;;;;;;1093.68;997.03;;;18.00;99.90;;;;;;5073486;28;20229;-75
2021/06/30 11:36:42;;;;;;;1049.75;968.58;;;17.70;99.90;;;;;;5073299;28;20216;-74
2021/06/30 11:39:11;;;;;;;1076.65;989.22;;;17.70;99.90;;;;;;5073587;28;20175;-75
2021/06/30 11:41:47;;;;;;;1060.75;978.78;;;17.60;99.90;;;;;;5073498;28;20160;-74
2021/06/30 11:44:14;;;;;;;1036.38;958.65;;;17.60;99.90;;;;;;5073387;28;20171;-76
2021/06/30 11:46:41;;;;;;;1050.88;969.90;;;17.50;99.90;;;;;;5073372;28;20176;-74
2021/06/30 11:49:10;;;;;;;1073.25;987.60;;;17.50;99.90;;;;;;5073415;28;20643;-74
2021/06/30 11:51:36;;;;;;;1085.03;992.60;;;17.70;99.90;;;;;;5073351;28;20625;-74
2021/06/30 11:54:02;;;;;;;1090.20;995.53;;;17.80;99.90;;;;;;5073413;28;20176;-74
2021/06/30 11:56:27;;;;;;;1103.53;998.60;;;17.80;99.90;;;;;;5073411;28;20735;-73
2021/06/30 11:58:54;;;;;;;1109.88;999.90;;;17.90;99.90;;;;;;5073298;28;20302;-73
2021/06/30 12:01:24;;;;;;;1109.85;999.75;;;17.90;99.90;;;;;;5073106;28;20164;-75
2021/06/30 12:04:06;;;;;;;1124.28;999.90;;;18.00;99.90;;;;;;5073377;28;20214;-74
2021/06/30 12:06:33;;;;;;;1104.53;998.60;;;18.00;99.90;;;;;;5073336;28;20251;-74
2021/06/30 12:09:14;;;;;;;1112.88;999.90;;;18.00;99.90;;;;;;5073174;28;20196;-75
2021/06/30 12:11:45;;;;;;;1065.97;981.45;;;18.00;99.90;;;;;;5073238;28;20179;-74
2021/06/30 12:14:14;;;;;;;1110.00;999.90;;;17.90;99.90;;;;;;5072885;28;20183;-74
2021/06/30 12:16:57;;;;;;;1118.47;999.90;;;17.90;99.90;;;;;;5072897;28;20192;-71
2021/06/30 12:19:40;;;;;;;1135.85;999.90;;;18.10;99.90;;;;;;5073109;28;20294;-72
2021/06/30 12:22:27;;;;;;;1147.95;999.90;;;18.20;99.90;;;;;;5073842;28;20198;-71
2021/06/30 12:25:03;;;;;;;1166.18;999.90;;;18.40;99.90;;;;;;5076977;28;20176;-72
2021/06/30 12:27:36;;;;;;;1162.35;999.90;;;18.50;99.90;;;;;;5076719;28;20178;-72
2021/06/30 12:30:08;;;;;;;1169.55;999.90;;;18.60;99.90;;;;;;5076767;28;20168;-72
2021/06/30 12:32:35;;;;;;;1154.35;999.90;;;18.50;99.90;;;;;;5076800;28;20156;-72
2021/06/30 12:35:04;;;;;;;1145.05;999.90;;;18.20;99.90;;;;;;5076279;28;20665;-72
2021/06/30 12:37:30;;;;;;;1115.60;999.90;;;18.00;99.90;;;;;;5076846;28;20221;-72
2021/06/30 12:40:18;;;;;;;1112.53;999.90;;;17.70;99.90;;;;;;5076424;28;20164;-72
2021/06/30 12:42:55;;;;;;;1035.97;957.78;;;17.60;99.90;;;;;;5075294;28;20241;-72
2021/06/30 12:45:34;;;;;;;1035.78;957.80;;;17.40;99.90;;;;;;5076394;28;20645;-72
2021/06/30 12:48:04;;;;;;;1016.85;941.75;;;17.40;99.90;;;;;;5076469;28;20181;-72
2021/06/30 12:50:43;;;;;;;1046.43;966.42;;;17.50;99.90;;;;;;5076315;28;20251;-72
2021/06/30 12:53:22;;;;;;;1093.10;997.00;;;17.70;99.90;;;;;;5076292;28;20652;-72
2021/06/30 12:56:00;;;;;;;1098.30;997.88;;;17.90;99.90;;;;;;5076126;28;20192;-72
2021/06/30 12:58:49;;;;;;;1122.32;999.90;;;18.10;99.90;;;;;;5076233;28;20171;-72
2021/06/30 13:01:24;;;;;;;1105.93;998.80;;;18.20;99.90;;;;;;5076500;28;20164;-72
2021/06/30 13:03:53;;;;;;;1150.35;999.90;;;18.20;99.90;;;;;;5076045;28;20573;-72
2021/06/30 13:06:22;;;;;;;1154.60;999.90;;;18.20;99.90;;;;;;5076081;28;20220;-72
2021/06/30 13:09:11;;;;;;;1138.07;999.90;;;18.20;99.90;;;;;;5076102;28;20217;-71
2021/06/30 13:11:39;;;;;;;1101.45;998.10;;;18.10;99.90;;;;;;5076058;28;20644;-72
2021/06/30 13:14:11;;;;;;;1089.22;993.85;;;18.10;99.90;;;;;;5076019;28;20203;-72
2021/06/30 13:16:57;;;;;;;1118.30;999.90;;;18.00;99.90;;;;;;5076028;28;20586;-71
2021/06/30 13:19:25;;;;;;;1120.32;999.90;;;18.00;99.90;;;;;;5076011;28;20168;-72
2021/06/30 13:22:04;;;;;;;1116.20;999.90;;;18.10;99.90;;;;;;5075694;28;20161;-71
2021/06/30 13:24:46;;;;;;;1099.32;997.17;;;18.20;99.90;;;;;;5075735;28;20164;-72
2021/06/30 13:35:46;;;;;;;1035.60;956.72;;;18.00;99.90;;;;;;5075330;28;20582;-70
2021/06/30 13:38:19;;;;;;;1022.83;946.22;;;17.70;99.90;;;;;;5075450;28;20279;-71
2021/06/30 13:40:48;;;;;;;1018.38;942.78;;;17.50;99.90;;;;;;5074216;28;20643;-71
2021/06/30 13:43:14;;;;;;;1007.80;933.63;;;17.40;99.90;;;;;;5075399;28;20160;-71
2021/06/30 13:45:49;;;;;;;987.75;916.50;;;17.40;99.90;;;;;;5075261;28;20621;-70
2021/06/30 13:48:16;;;;;;;981.67;911.25;;;17.20;99.90;;;;;;5075254;28;20172;-72
2021/06/30 13:51:00;;;;;;;977.60;907.20;;;17.20;99.90;;;;;;5075220;28;20525;-71
2021/06/30 13:53:27;;;;;;;959.42;891.38;;;17.20;99.90;;;;;;5075211;28;20190;-71
2021/06/30 13:55:55;;;;;;;993.65;921.17;;;17.30;99.90;;;;;;5075094;28;20199;-71
2021/06/30 13:58:23;;;;;;;1012.63;937.20;;;17.30;99.90;;;;;;5075018;28;20184;-71
2021/06/30 14:00:49;;;;;;;1039.05;960.30;;;17.50;99.90;;;;;;5074834;28;20188;-71
2021/06/30 14:03:15;;;;;;;1071.18;985.67;;;17.60;99.90;;;;;;5074738;28;20519;-71
2021/06/30 14:05:41;;;;;;;1051.68;969.78;;;17.50;99.90;;;;;;5074849;28;20168;-71
2021/06/30 14:08:14;;;;;;;1037.70;958.45;;;17.60;99.90;;;;;;5074808;28;20172;-72
2021/06/30 14:10:59;;;;;;;993.65;920.83;;;17.50;99.90;;;;;;5074714;28;20213;-71
2021/06/30 14:13:29;;;;;;;957.05;889.45;;;17.30;99.90;;;;;;5074856;28;20194;-70
2021/06/30 14:15:56;;;;;;;970.15;901.35;;;17.20;99.90;;;;;;5074450;28;20711;-70
2021/06/30 14:18:22;;;;;;;988.47;917.47;;;17.10;99.90;;;;;;5074534;28;20210;-72
2021/06/30 14:20:49;;;;;;;969.83;900.45;;;17.20;99.90;;;;;;5074557;28;20175;-72
2021/06/30 14:23:18;;;;;;;978.65;908.65;;;17.20;99.90;;;;;;5074607;28;20175;-71
2021/06/30 14:25:45;;;;;;;944.00;877.67;;;17.20;99.90;;;;;;5074662;28;20173;-70
2021/06/30 14:28:11;;;;;;;909.97;847.78;;;17.00;99.90;;;;;;5074523;28;20637;-71
2021/06/30 14:30:39;;;;;;;886.67;826.92;;;16.90;99.90;;;;;;5074262;28;20199;-71
2021/06/30 14:33:05;;;;;;;900.47;840.10;;;16.60;99.90;;;;;;5074261;28;20199;-70
2021/06/30 14:35:31;;;;;;;871.97;814.22;;;16.60;99.90;;;;;;5074104;28;20285;-70
2021/06/30 14:37:57;;;;;;;896.92;836.63;;;16.50;99.90;;;;;;5073261;28;20610;-70
2021/06/30 14:40:22;;;;;;;892.35;833.03;;;16.50;99.90;;;;;;5074297;28;20597;-69
2021/06/30 14:42:48;;;;;;;901.30;840.67;;;16.40;99.90;;;;;;5074256;28;20168;-69
2021/06/30 14:45:16;;;;;;;917.97;855.53;;;16.60;99.90;;;;;;5073710;28;20218;-71
2021/06/30 14:47:42;;;;;;;941.10;876.03;;;16.70;99.90;;;;;;5074162;28;20172;-72
2021/06/30 14:50:11;;;;;;;935.65;871.47;;;16.80;99.90;;;;;;5072926;28;20635;-71
2021/06/30 14:52:37;;;;;;;940.90;875.97;;;16.80;99.90;;;;;;5074134;28;20514;-73
2021/06/30 14:55:04;;;;;;;946.88;881.13;;;16.90;99.90;;;;;;5074091;28;20251;-72
2021/06/30 14:57:29;;;;;;;955.92;889.15;;;16.90;99.90;;;;;;5073981;28;20168;-72
2021/06/30 14:59:55;;;;;;;953.22;886.35;;;17.10;99.90;;;;;;5073844;28;20175;-72
2021/06/30 15:02:21;;;;;;;960.00;892.35;;;17.10;99.90;;;;;;5073841;28;20169;-72
2021/06/30 15:04:47;;;;;;;984.70;913.50;;;17.10;99.90;;;;;;5074156;28;20188;-72
2021/06/30 15:07:12;;;;;;;994.20;922.75;;;17.20;99.90;;;;;;5073873;28;20598;-73
2021/06/30 15:09:39;;;;;;;982.13;912.17;;;17.10;99.90;;;;;;5073918;28;20383;-72
2021/06/30 15:12:05;;;;;;;945.30;879.00;;;17.00;99.90;;;;;;5073947;28;20649;-73
2021/06/30 15:14:31;;;;;;;952.22;885.80;;;17.00;99.90;;;;;;5073705;28;20207;-73
2021/06/30 15:16:57;;;;;;;956.50;889.40;;;16.90;99.90;;;;;;5073866;28;20638;-72
2021/06/30 15:19:23;;;;;;;945.72;879.80;;;16.80;99.90;;;;;;5073891;28;20171;-72
2021/06/30 15:21:49;;;;;;;941.45;876.17;;;16.80;99.90;;;;;;5073979;28;20213;-72
2021/06/30 15:24:18;;;;;;;933.20;869.00;;;16.80;99.90;;;;;;5073687;28;20168;-72
2021/06/30 15:26:44;;;;;;;953.63;887.42;;;16.70;99.90;;;;;;5073815;28;20164;-72
2021/06/30 15:29:10;;;;;;;980.65;910.88;;;16.90;99.90;;;;;;5073655;28;20632;-70
2021/06/30 15:31:36;;;;;;;994.83;922.88;;;17.00;99.90;;;;;;5073506;28;20168;-72
2021/06/30 15:34:07;;;;;;;1027.25;950.92;;;17.10;99.90;;;;;;5072443;28;20266;-72
2021/06/30 15:36:33;;;;;;;1013.10;938.63;;;17.30;99.90;;;;;;5073347;28;20554;-73
2021/06/30 15:39:00;;;;;;;1138.18;999.90;;;17.20;99.90;;;;;;5073591;28;20168;-73
2021/06/30 15:41:26;;;;;;;975.90;905.55;;;17.30;99.90;;;;;;5073579;28;20190;-72
2021/06/30 15:43:52;;;;;;;992.50;921.00;;;17.00;99.90;;;;;;5073549;28;20168;-72
2021/06/30 15:46:19;;;;;;;972.83;903.90;;;16.90;99.90;;;;;;5073527;28;20259;-72
2021/06/30 15:48:45;;;;;;;926.15;862.65;;;17.10;99.90;;;;;;5073554;28;20176;-73
2021/06/30 15:51:12;;;;;;;950.70;884.08;;;17.00;99.90;;;;;;5072268;28;20196;-72
2021/06/30 15:53:38;;;;;;;976.38;906.75;;;17.00;99.90;;;;;;5073407;28;20165;-72
2021/06/30 15:56:04;;;;;;;984.20;913.65;;;17.10;99.90;;;;;;5073318;28;20298;-73
2021/06/30 15:58:30;;;;;;;988.55;917.38;;;17.30;99.90;;;;;;5076634;28;20168;-72
2021/06/30 16:00:55;;;;;;;978.53;908.42;;;17.40;99.90;;;;;;5076262;28;20259;-71
2021/06/30 16:03:21;;;;;;;974.80;905.58;;;17.20;99.90;;;;;;5077340;28;20168;-72
2021/06/30 16:05:47;;;;;;;968.25;899.38;;;17.20;99.90;;;;;;5077103;28;20176;-68
2021/06/30 16:08:13;;;;;;;965.40;896.47;;;17.20;99.90;;;;;;5076761;28;20176;-69
2021/06/30 16:10:39;;;;;;;960.75;892.58;;;17.20;99.90;;;;;;5076728;28;20224;-69
2021/06/30 16:13:05;;;;;;;977.55;908.40;;;17.20;99.90;;;;;;5076858;28;20176;-69
2021/06/30 16:15:31;;;;;;;965.42;897.40;;;17.20;99.90;;;;;;5076971;28;20591;-69
2021/06/30 16:17:57;;;;;;;974.03;904.40;;;17.10;99.90;;;;;;5076720;28;20508;-69
2021/06/30 16:20:23;;;;;;;967.63;899.45;;;17.10;99.90;;;;;;5075423;28;20180;-69
2021/06/30 16:22:49;;;;;;;964.83;897.25;;;17.00;99.90;;;;;;5076593;28;20758;-70
2021/06/30 16:25:16;;;;;;;958.03;890.53;;;17.10;99.90;;;;;;5076727;28;20165;-69
2021/06/30 16:27:42;;;;;;;939.90;875.00;;;17.00;99.90;;;;;;5076770;28;20218;-69
2021/06/30 16:30:09;;;;;;;934.47;869.75;;;16.90;99.90;;;;;;5076648;28;20169;-69
2021/06/30 16:32:35;;;;;;;932.60;868.30;;;16.90;99.90;;;;;;5076670;28;20168;-69
2021/06/30 16:35:01;;;;;;;917.72;855.28;;;16.80;99.90;;;;;;5076282;28;20724;-69
2021/06/30 16:37:27;;;;;;;929.75;866.10;;;16.80;99.90;;;;;;5076689;28;20247;-69
2021/06/30 16:39:52;;;;;;;939.85;875.25;;;16.60;99.90;;;;;;5076576;28;20251;-69
2021/06/30 16:42:19;;;;;;;927.20;863.78;;;16.70;99.90;;;;;;5075539;28;20169;-69
2021/06/30 16:44:46;;;;;;;904.85;843.72;;;16.70;99.90;;;;;;5075513;28;20275;-69
2021/06/30 16:47:12;;;;;;;908.72;848.10;;;16.70;99.90;;;;;;5076418;28;20525;-69
2021/06/30 16:49:38;;;;;;;864.63;807.58;;;16.60;99.90;;;;;;5076182;28;20176;-69
2021/06/30 16:52:04;;;;;;;842.40;787.40;;;16.50;99.90;;;;;;5076077;28;20168;-69
2021/06/30 16:54:30;;;;;;;803.03;751.72;;;16.30;99.90;;;;;;5076039;28;20251;-69
2021/06/30 17:20:20;;;;;;;616.10;580.35;;;15.70;99.90;;;;;;5091161;28;20965;-68
2021/06/30 17:22:47;;;;;;;695.47;652.47;;;15.80;99.90;;;;;;5091450;28;20189;-68
2021/06/30 17:25:13;;;;;;;723.78;679.03;;;15.80;99.90;;;;;;5091161;28;20553;-68
2021/06/30 17:27:41;;;;;;;764.60;716.53;;;15.90;99.90;;;;;;5091098;28;20853;-68
2021/06/30 17:30:08;;;;;;;792.95;742.17;;;15.90;99.90;;;;;;5090854;28;20194;-68
2021/06/30 17:32:35;;;;;;;818.13;765.17;;;16.10;99.90;;;;;;5090957;28;20164;-68
2021/06/30 17:35:02;;;;;;;845.38;789.88;;;16.20;99.90;;;;;;5090828;28;20168;-68
2021/06/30 17:37:27;;;;;;;840.15;785.65;;;16.30;99.90;;;;;;5089681;28;20614;-68
2021/06/30 17:39:53;;;;;;;842.33;787.33;;;16.40;99.90;;;;;;5090870;28;20218;-68
2021/06/30 17:42:19;;;;;;;861.78;805.28;;;16.40;99.90;;;;;;5090856;28;20171;-68
2021/06/30 17:44:45;;;;;;;863.22;806.72;;;16.40;99.90;;;;;;5090784;28;20164;-68
2021/06/30 17:47:11;;;;;;;839.38;785.25;;;16.30;99.90;;;;;;5090565;28;20174;-68
2021/06/30 17:49:37;;;;;;;833.88;779.92;;;16.10;99.90;;;;;;5090655;28;20171;-68
2021/06/30 17:52:03;;;;;;;827.15;773.30;;;16.20;99.90;;;;;;5090660;28;20609;-68
2021/06/30 17:54:29;;;;;;;854.45;798.40;;;16.20;99.90;;;;;;5090494;28;20314;-68
2021/06/30 17:56:58;;;;;;;841.47;786.70;;;16.20;99.90;;;;;;5090628;28;20242;-68
2021/06/30 17:59:25;;;;;;;835.17;781.17;;;16.20;99.90;;;;;;5090306;28;20612;-68
2021/06/30 18:01:55;;;;;;;839.42;784.50;;;16.20;99.90;;;;;;5090456;28;20274;-68
2021/06/30 18:04:21;;;;;;;781.30;731.92;;;16.10;99.90;;;;;;5090494;28;20613;-68
2021/06/30 18:06:46;;;;;;;786.30;736.47;;;15.90;99.90;;;;;;5090330;28;20175;-68
2021/06/30 18:09:12;;;;;;;799.50;748.75;;;16.00;99.90;;;;;;5090134;28;20245;-68
2021/06/30 18:11:38;;;;;;;792.17;741.35;;;15.90;99.90;;;;;;5090482;28;20175;-68
2021/06/30 18:14:04;;;;;;;799.90;748.58;;;15.80;99.90;;;;;;5090323;28;20254;-68
